Time;durP1;ratioP1;P1;durP2;ratioP2;P2;SDS_P1;SDS_P2;PMS_P1;PMS_P2;Temp;Humidity;BMP_temperature;BMP_pressure;BME280_temperature;BME280_humidity;BME280_pressure;Samples;Min_cycle;Max_cycle;Signal;HPM_P1;HPM_P2
2022/05/23 00:02:00;;;;;;;0.15;0.15;;;;;;;;;;5008818;28;19925;-78
2022/05/23 00:04:26;;;;;;;1.08;0.68;;;;;;;;;;5028488;28;20041;-78
2022/05/23 00:06:53;;;;;;;0.17;0.17;;;;;;;;;;5015322;28;20063;-79
2022/05/23 00:09:19;;;;;;;;;;;;;;;;;;5020612;28;20157;-78
2022/05/23 00:12:19;;;;;;;0.43;0.43;;;;;;;;;;5040827;28;20285;-77
2022/05/23 00:14:46;;;;;;;0.95;0.57;;;;;;;;;;5031791;28;20045;-75
2022/05/23 00:29:43;;;;;;;0.85;0.85;;;;;;;;;;5053745;27;20922;-76
2022/05/23 00:37:38;;;;;;;0.43;0.43;;;;;;;;;;5041733;28;20084;-77
2022/05/23 00:40:05;;;;;;;1.30;0.93;;;;;;;;;;5053810;28;20033;-77
2022/05/23 00:45:18;;;;;;;4.00;1.10;;;;;;;;;;5043230;28;19939;-77
2022/05/23 00:47:45;;;;;;;8.30;1.27;;;;;;;;;;5047196;28;21306;-77
2022/05/23 00:50:14;;;;;;;2.47;1.10;;;;;;;;;;5046122;28;20025;-77
2022/05/23 00:52:50;;;;;;;4.05;1.55;;;;;;;;;;5041485;28;20032;-77
2022/05/23 00:55:25;;;;;;;0.80;0.45;;;;;;;;;;5040916;28;20032;-77
2022/05/23 00:57:53;;;;;;;1.00;0.88;;;;;;;;;;5040681;28;20037;-77
2022/05/23 01:00:19;;;;;;;1.58;1.48;;;;;;;;;;5048358;28;20519;-76
2022/05/23 01:02:50;;;;;;;5.05;0.77;;;;;;;;;;5043639;28;20033;-76
2022/05/23 01:05:16;;;;;;;1.67;0.85;;;;;;;;;;5045289;28;20051;-75
2022/05/23 01:07:42;;;;;;;0.15;0.15;;;;;;;;;;5042319;28;20029;-76
2022/05/23 01:10:09;;;;;;;0.70;0.65;;;;;;;;;;5037569;28;20052;-76
2022/05/23 01:12:36;;;;;;;0.73;0.73;;;;;;;;;;5044943;28;20024;-76
2022/05/23 01:15:03;;;;;;;0.73;0.70;;;;;;;;;;5052546;28;20032;-76
2022/05/23 01:17:29;;;;;;;0.75;0.35;;;;;;;;;;5049385;28;20032;-76
2022/05/23 01:19:56;;;;;;;1.75;1.00;;;;;;;;;;5047077;28;20827;-75
2022/05/23 01:22:27;;;;;;;0.85;0.40;;;;;;;;;;5046719;28;20021;-76
2022/05/23 01:24:57;;;;;;;4.20;1.95;;;;;;;;;;5044533;28;20025;-76
2022/05/23 01:27:23;;;;;;;7.15;2.70;;;;;;;;;;5040391;28;20024;-76
2022/05/23 01:29:49;;;;;;;0.90;0.43;;;;;;;;;;5033072;28;20033;-75
2022/05/23 01:32:15;;;;;;;0.40;0.40;;;;;;;;;;5026134;28;20675;-76
2022/05/23 01:34:43;;;;;;;0.43;0.40;;;;;;;;;;5027599;28;20582;-76
2022/05/23 01:37:09;;;;;;;0.68;0.68;;;;;;;;;;5028463;28;20056;-76
2022/05/23 01:39:35;;;;;;;0.30;0.30;;;;;;;;;;5040376;28;20045;-76
2022/05/23 01:42:01;;;;;;;5.07;0.65;;;;;;;;;;5026712;28;20155;-78
2022/05/23 01:44:28;;;;;;;0.10;0.10;;;;;;;;;;5025981;28;20045;-76
2022/05/23 01:46:54;;;;;;;1.42;0.73;;;;;;;;;;5035442;28;20420;-77
2022/05/23 01:49:21;;;;;;;3.20;0.80;;;;;;;;;;5024761;28;20703;-76
2022/05/23 01:51:47;;;;;;;2.00;0.40;;;;;;;;;;5024873;28;20044;-76
2022/05/23 01:54:13;;;;;;;0.13;0.13;;;;;;;;;;5028777;28;20051;-76
2022/05/23 01:56:39;;;;;;;1.20;1.02;;;;;;;;;;5025182;28;20029;-76
2022/05/23 02:01:50;;;;;;;0.90;0.57;;;;;;;;;;5024916;28;20125;-76
2022/05/23 02:04:16;;;;;;;0.32;0.20;;;;;;;;;;5035279;28;20103;-75
2022/05/23 02:06:42;;;;;;;3.38;0.98;;;;;;;;;;5031383;28;20111;-75
2022/05/23 02:09:08;;;;;;;0.20;0.20;;;;;;;;;;5038847;28;20825;-75
2022/05/23 02:11:35;;;;;;;0.63;0.63;;;;;;;;;;5034266;28;20251;-76
2022/05/23 02:14:01;;;;;;;0.40;0.40;;;;;;;;;;5031783;28;20078;-76
2022/05/23 02:16:27;;;;;;;1.83;0.82;;;;;;;;;;5036176;28;20040;-76
2022/05/23 02:18:53;;;;;;;1.75;1.10;;;;;;;;;;5027857;28;20041;-76
2022/05/23 02:21:20;;;;;;;1.35;0.80;;;;;;;;;;5028994;28;20021;-82
2022/05/23 02:23:47;;;;;;;0.45;0.40;;;;;;;;;;5039402;28;20036;-84
2022/05/23 02:26:13;;;;;;;9.05;0.95;;;;;;;;;;5031662;28;20029;-84
2022/05/23 02:28:39;;;;;;;3.08;0.80;;;;;;;;;;5024722;28;20049;-83
2022/05/23 02:31:05;;;;;;;6.45;0.98;;;;;;;;;;5029090;28;20057;-82
2022/05/23 02:33:31;;;;;;;0.70;0.63;;;;;;;;;;5027111;28;20222;-83
2022/05/23 02:35:57;;;;;;;0.20;0.20;;;;;;;;;;5026597;28;20477;-83
2022/05/23 02:38:23;;;;;;;0.45;0.10;;;;;;;;;;5026276;28;20072;-82
2022/05/23 02:40:49;;;;;;;2.60;1.75;;;;;;;;;;5032898;28;20030;-82
2022/05/23 02:43:15;;;;;;;0.25;0.25;;;;;;;;;;5019751;28;20051;-82
2022/05/23 02:45:41;;;;;;;0.93;0.93;;;;;;;;;;5032942;28;20812;-82
2022/05/23 02:48:08;;;;;;;0.00;0.00;;;;;;;;;;5026881;28;20034;-82
2022/05/23 02:50:34;;;;;;;1.45;0.70;;;;;;;;;;5025739;28;20053;-81
2022/05/23 02:53:00;;;;;;;0.73;0.25;;;;;;;;;;5024599;28;20037;-81
2022/05/23 02:55:26;;;;;;;0.32;0.32;;;;;;;;;;5027640;28;20025;-81
2022/05/23 02:57:52;;;;;;;0.35;0.35;;;;;;;;;;5024226;28;20120;-82
2022/05/23 03:00:19;;;;;;;5.70;1.40;;;;;;;;;;5023980;28;20930;-82
2022/05/23 03:03:03;;;;;;;0.38;0.38;;;;;;;;;;5022525;28;20029;-82
2022/05/23 03:05:38;;;;;;;0.10;0.10;;;;;;;;;;5028117;28;20033;-83
2022/05/23 03:08:05;;;;;;;0.20;0.20;;;;;;;;;;5031152;28;20032;-81
2022/05/23 03:10:31;;;;;;;1.92;1.00;;;;;;;;;;5025375;28;20037;-82
2022/05/23 03:12:57;;;;;;;1.60;0.73;;;;;;;;;;5025800;28;20095;-81
2022/05/23 03:15:24;;;;;;;0.63;0.40;;;;;;;;;;5029926;28;20044;-81
2022/05/23 03:17:50;;;;;;;0.10;0.10;;;;;;;;;;5024790;28;20071;-83
2022/05/23 03:20:17;;;;;;;0.17;0.17;;;;;;;;;;5027171;28;20047;-81
2022/05/23 03:28:12;;;;;;;0.70;0.65;;;;;;;;;;5032802;28;20056;-79
2022/05/23 03:30:39;;;;;;;0.40;0.40;;;;;;;;;;5029005;28;20592;-79
2022/05/23 03:33:05;;;;;;;0.73;0.73;;;;;;;;;;5030608;28;20898;-79
2022/05/23 03:35:32;;;;;;;4.47;0.65;;;;;;;;;;5037045;28;20449;-79
2022/05/23 03:37:58;;;;;;;3.70;1.65;;;;;;;;;;5029470;28;20561;-79
2022/05/23 03:40:24;;;;;;;0.30;0.30;;;;;;;;;;5034734;28;20028;-79
2022/05/23 03:42:50;;;;;;;0.38;0.38;;;;;;;;;;5040363;28;20045;-79
2022/05/23 03:45:16;;;;;;;2.35;1.52;;;;;;;;;;5040687;28;20564;-79
2022/05/23 03:47:42;;;;;;;20.85;0.98;;;;;;;;;;5028100;28;20128;-78
2022/05/23 03:50:09;;;;;;;0.52;0.52;;;;;;;;;;5035873;28;20029;-79
2022/05/23 03:52:35;;;;;;;0.10;0.10;;;;;;;;;;5026527;28;21007;-78
2022/05/23 03:55:01;;;;;;;0.30;0.30;;;;;;;;;;5037062;28;20087;-79
2022/05/23 03:57:27;;;;;;;0.10;0.10;;;;;;;;;;5037230;28;20043;-79
2022/05/23 03:59:54;;;;;;;0.22;0.22;;;;;;;;;;5032788;28;20064;-79
2022/05/23 04:02:20;;;;;;;0.47;0.45;;;;;;;;;;5036011;28;20032;-79
2022/05/23 04:04:47;;;;;;;1.52;0.40;;;;;;;;;;5029228;28;20025;-79
2022/05/23 04:07:13;;;;;;;9.55;1.45;;;;;;;;;;5029628;28;20501;-79
2022/05/23 04:09:40;;;;;;;1.30;1.05;;;;;;;;;;5030233;28;20120;-80
2022/05/23 04:12:06;;;;;;;0.32;0.32;;;;;;;;;;5028457;28;20037;-79
2022/05/23 04:14:32;;;;;;;0.50;0.50;;;;;;;;;;5032894;28;20257;-79
2022/05/23 04:16:59;;;;;;;0.40;0.40;;;;;;;;;;5034912;28;20028;-79
2022/05/23 04:19:25;;;;;;;1.25;0.60;;;;;;;;;;5035314;28;20041;-79
2022/05/23 04:21:51;;;;;;;;;;;;;;;;;;5032008;28;20033;-80
2022/05/23 04:24:18;;;;;;;2.35;0.70;;;;;;;;;;5029443;28;19920;-80
2022/05/23 04:26:44;;;;;;;;;;;;;;;;;;5029505;28;20048;-80
2022/05/23 04:29:10;;;;;;;0.35;0.35;;;;;;;;;;5035008;28;19924;-80
2022/05/23 04:31:36;;;;;;;3.75;1.55;;;;;;;;;;5033120;28;20484;-80
2022/05/23 04:36:50;;;;;;;0.63;0.57;;;;;;;;;;5024935;28;20125;-80
2022/05/23 04:39:16;;;;;;;0.10;0.10;;;;;;;;;;5030103;28;20094;-80
2022/05/23 04:41:42;;;;;;;0.65;0.55;;;;;;;;;;5031247;28;20481;-82
2022/05/23 04:44:08;;;;;;;0.65;0.50;;;;;;;;;;5026743;28;20043;-79
2022/05/23 04:46:34;;;;;;;0.22;0.22;;;;;;;;;;5031490;28;20104;-80
2022/05/23 04:51:45;;;;;;;0.63;0.63;;;;;;;;;;5030746;28;20048;-79
2022/05/23 04:54:11;;;;;;;0.57;0.57;;;;;;;;;;5037002;28;20032;-79
2022/05/23 04:56:37;;;;;;;0.20;0.20;;;;;;;;;;5038431;28;20060;-79
2022/05/23 04:59:04;;;;;;;0.22;0.22;;;;;;;;;;5032927;28;20860;-82
2022/05/23 05:01:30;;;;;;;0.93;0.85;;;;;;;;;;5032289;28;20022;-82
2022/05/23 05:03:57;;;;;;;0.10;0.10;;;;;;;;;;5027636;28;20031;-83
2022/05/23 05:06:24;;;;;;;0.10;0.10;;;;;;;;;;5031138;28;20044;-82
2022/05/23 05:08:50;;;;;;;0.30;0.30;;;;;;;;;;5038112;28;20028;-85
2022/05/23 05:11:16;;;;;;;0.20;0.20;;;;;;;;;;5030528;28;20560;-81
2022/05/23 05:13:43;;;;;;;1.65;1.17;;;;;;;;;;5034589;28;20025;-82
2022/05/23 05:16:09;;;;;;;;;;;;;;;;;;5033695;28;20045;-79
2022/05/23 05:18:35;;;;;;;0.75;0.30;;;;;;;;;;5033411;28;19928;-79
2022/05/23 05:21:08;;;;;;;0.65;0.57;;;;;;;;;;5037785;28;20036;-79
2022/05/23 05:23:34;;;;;;;0.20;0.20;;;;;;;;;;5029321;28;20040;-78
2022/05/23 05:26:02;;;;;;;2.28;1.25;;;;;;;;;;5029491;28;20029;-78
2022/05/23 05:28:28;;;;;;;25.35;1.05;;;;;;;;;;5042384;28;20057;-78
2022/05/23 05:31:17;;;;;;;0.55;0.55;;;;;;;;;;5041822;28;20127;-87
2022/05/23 05:33:46;;;;;;;6.53;0.52;;;;;;;;;;5022310;28;20041;-85
2022/05/23 05:36:16;;;;;;;1.25;0.52;;;;;;;;;;5023549;28;20130;-87
2022/05/23 05:38:42;;;;;;;1.42;0.75;;;;;;;;;;5016510;28;20042;-88
2022/05/23 05:41:11;;;;;;;0.20;0.20;;;;;;;;;;5018044;28;20910;-86
2022/05/23 05:43:41;;;;;;;0.30;0.30;;;;;;;;;;5020308;28;20021;-86
2022/05/23 05:46:18;;;;;;;0.30;0.30;;;;;;;;;;5023640;28;20117;-84
2022/05/23 05:48:45;;;;;;;1.33;1.23;;;;;;;;;;5029746;28;20030;-85
2022/05/23 05:51:13;;;;;;;0.40;0.40;;;;;;;;;;5029568;28;20033;-84
2022/05/23 05:53:39;;;;;;;0.50;0.50;;;;;;;;;;5029441;28;20033;-88
2022/05/23 05:56:06;;;;;;;0.38;0.35;;;;;;;;;;5033994;28;20041;-92
2022/05/23 05:58:32;;;;;;;;;;;;;;;;;;5033343;28;20045;-91
2022/05/23 06:00:58;;;;;;;0.80;0.80;;;;;;;;;;5035414;28;20291;-91
2022/05/23 06:03:24;;;;;;;4.20;1.90;;;;;;;;;;5046402;28;20351;-82
2022/05/23 06:11:26;;;;;;;0.65;0.50;;;;;;;;;;5028372;28;20331;-83
2022/05/23 06:13:56;;;;;;;1.15;0.85;;;;;;;;;;5029417;28;20067;-89
2022/05/23 06:16:23;;;;;;;1.73;0.65;;;;;;;;;;5027861;28;20038;-89
2022/05/23 06:18:49;;;;;;;;;;;;;;;;;;5043383;28;20052;-89
2022/05/23 06:21:15;;;;;;;0.25;0.25;;;;;;;;;;5032766;28;19912;-79
2022/05/23 06:23:42;;;;;;;0.20;0.20;;;;;;;;;;5027865;28;20025;-79
2022/05/23 06:26:08;;;;;;;0.32;0.32;;;;;;;;;;5032872;28;20036;-80
2022/05/23 06:28:36;;;;;;;0.50;0.50;;;;;;;;;;5026800;28;20049;-78
2022/05/23 06:31:02;;;;;;;0.20;0.20;;;;;;;;;;5029059;28;20033;-78
2022/05/23 06:33:29;;;;;;;0.52;0.22;;;;;;;;;;5027342;28;20991;-80
2022/05/23 06:35:55;;;;;;;1.05;0.32;;;;;;;;;;5028572;28;20084;-79
2022/05/23 06:38:22;;;;;;;1.13;0.70;;;;;;;;;;5027215;28;20041;-79
2022/05/23 06:40:50;;;;;;;0.20;0.20;;;;;;;;;;5026012;28;20017;-79
2022/05/23 06:43:16;;;;;;;0.50;0.50;;;;;;;;;;5027541;28;20035;-78
2022/05/23 06:45:42;;;;;;;0.32;0.32;;;;;;;;;;5032456;28;20029;-79
2022/05/23 06:48:09;;;;;;;0.63;0.47;;;;;;;;;;5036310;28;20057;-79
2022/05/23 06:50:35;;;;;;;0.20;0.20;;;;;;;;;;5034014;28;20025;-76
2022/05/23 06:53:01;;;;;;;0.43;0.35;;;;;;;;;;5028574;28;20028;-77
2022/05/23 06:55:27;;;;;;;0.68;0.57;;;;;;;;;;5033318;28;20030;-77
2022/05/23 06:57:53;;;;;;;0.30;0.20;;;;;;;;;;5040978;28;20040;-77
2022/05/23 07:00:19;;;;;;;0.17;0.10;;;;;;;;;;5039728;28;20129;-77
2022/05/23 07:02:46;;;;;;;0.20;0.20;;;;;;;;;;5039206;28;20041;-77
2022/05/23 07:13:27;;;;;;;0.30;0.30;;;;;;;;;;5028160;28;20083;-77
2022/05/23 07:15:55;;;;;;;0.10;0.10;;;;;;;;;;5007579;28;20036;-77
2022/05/23 07:18:22;;;;;;;0.10;0.10;;;;;;;;;;5039801;28;20049;-78
2022/05/23 07:20:48;;;;;;;0.45;0.45;;;;;;;;;;5032764;28;20021;-77
2022/05/23 07:23:14;;;;;;;0.25;0.25;;;;;;;;;;5030448;28;20077;-77
2022/05/23 07:25:40;;;;;;;0.00;0.00;;;;;;;;;;5040138;28;20148;-77
2022/05/23 07:28:06;;;;;;;0.10;0.10;;;;;;;;;;5040966;28;20053;-77
2022/05/23 07:30:33;;;;;;;0.38;0.13;;;;;;;;;;5041196;28;20033;-78
2022/05/23 07:32:59;;;;;;;0.60;0.60;;;;;;;;;;5038695;28;20120;-78
2022/05/23 07:35:26;;;;;;;0.00;0.00;;;;;;;;;;5038218;28;20091;-77
2022/05/23 07:37:52;;;;;;;;;;;;;;;;;;5043335;28;20028;-78
2022/05/23 07:40:18;;;;;;;1.20;0.77;;;;;;;;;;5026733;28;19919;-78
2022/05/23 07:42:44;;;;;;;0.13;0.13;;;;;;;;;;5041256;28;20048;-78
2022/05/23 07:45:11;;;;;;;0.30;0.30;;;;;;;;;;5030671;28;20415;-78
2022/05/23 07:47:38;;;;;;;0.30;0.30;;;;;;;;;;5030344;28;20029;-78
2022/05/23 07:50:09;;;;;;;0.10;0.10;;;;;;;;;;5030190;28;20082;-78
2022/05/23 07:52:35;;;;;;;0.60;0.60;;;;;;;;;;5028549;28;20178;-78
2022/05/23 08:00:31;;;;;;;0.10;0.10;;;;;;;;;;5029719;28;20594;-78
2022/05/23 08:02:58;;;;;;;2.72;0.73;;;;;;;;;;5030247;28;20401;-78
2022/05/23 08:05:24;;;;;;;0.10;0.10;;;;;;;;;;5030998;28;20040;-77
2022/05/23 08:07:50;;;;;;;0.10;0.10;;;;;;;;;;5041532;28;20048;-78
2022/05/23 08:10:16;;;;;;;0.20;0.13;;;;;;;;;;5026410;28;20025;-78
2022/05/23 08:12:48;;;;;;;1.75;0.10;;;;;;;;;;5040025;28;20036;-78
2022/05/23 08:15:14;;;;;;;0.10;0.10;;;;;;;;;;5028200;28;20025;-78
2022/05/23 08:17:40;;;;;;;0.03;0.03;;;;;;;;;;5032810;28;20146;-78
2022/05/23 08:20:06;;;;;;;0.50;0.50;;;;;;;;;;5037620;28;20030;-78
2022/05/23 08:22:32;;;;;;;1.55;1.00;;;;;;;;;;5041129;28;20033;-78
2022/05/23 08:24:58;;;;;;;0.10;0.10;;;;;;;;;;5026981;28;20080;-78
2022/05/23 08:27:24;;;;;;;1.75;0.55;;;;;;;;;;5029522;28;20034;-77
2022/05/23 08:29:52;;;;;;;0.43;0.43;;;;;;;;;;5030085;28;20072;-78
2022/05/23 08:32:20;;;;;;;0.10;0.10;;;;;;;;;;5030176;28;20520;-78
2022/05/23 08:34:47;;;;;;;0.55;0.55;;;;;;;;;;5040712;28;20119;-78
2022/05/23 08:37:14;;;;;;;0.75;0.47;;;;;;;;;;5025983;28;20036;-78
2022/05/23 08:39:40;;;;;;;0.70;0.40;;;;;;;;;;5040882;28;20033;-78
2022/05/23 08:42:45;;;;;;;0.15;0.15;;;;;;;;;;5041916;28;20873;-78
2022/05/23 08:45:11;;;;;;;;;;;;;;;;;;5035397;28;20061;-78
2022/05/23 08:47:43;;;;;;;0.10;0.10;;;;;;;;;;5042280;28;19909;-78
2022/05/23 08:50:21;;;;;;;0.10;0.10;;;;;;;;;;5043490;28;20044;-78
2022/05/23 08:52:54;;;;;;;0.15;0.15;;;;;;;;;;5026493;28;20501;-78
2022/05/23 08:55:24;;;;;;;0.20;0.20;;;;;;;;;;5031677;28;20031;-78
2022/05/23 08:57:50;;;;;;;0.47;0.47;;;;;;;;;;5040758;28;20059;-78
2022/05/23 09:00:20;;;;;;;1.48;0.90;;;;;;;;;;5047106;28;20406;-78
2022/05/23 09:02:54;;;;;;;6.03;1.13;;;;;;;;;;5046673;28;20041;-78
2022/05/23 09:05:29;;;;;;;4.30;0.77;;;;;;;;;;5041519;28;20033;-78
2022/05/23 09:07:58;;;;;;;0.43;0.43;;;;;;;;;;5034032;28;20082;-78
2022/05/23 09:10:40;;;;;;;0.55;0.40;;;;;;;;;;5031489;28;20219;-78
2022/05/23 09:13:07;;;;;;;0.25;0.25;;;;;;;;;;5044753;28;20033;-78
2022/05/23 09:15:33;;;;;;;;;;;;;;;;;;5040966;28;20041;-78
2022/05/23 09:18:02;;;;;;;0.00;0.00;;;;;;;;;;5033734;28;20408;-78
2022/05/23 09:20:48;;;;;;;0.50;0.50;;;;;;;;;;5032354;28;20025;-78
2022/05/23 09:23:26;;;;;;;0.32;0.32;;;;;;;;;;5033767;28;20052;-88
2022/05/23 09:25:53;;;;;;;0.28;0.22;;;;;;;;;;5044034;28;20044;-89
2022/05/23 09:28:30;;;;;;;1.50;0.65;;;;;;;;;;5031527;28;20053;-90
2022/05/23 09:31:01;;;;;;;1.08;0.77;;;;;;;;;;5027929;28;20071;-89
2022/05/23 09:33:29;;;;;;;0.73;0.73;;;;;;;;;;5055961;28;20035;-90
2022/05/23 09:36:07;;;;;;;0.30;0.30;;;;;;;;;;5042168;28;20029;-89
2022/05/23 09:38:33;;;;;;;0.10;0.10;;;;;;;;;;5041918;28;20124;-91
2022/05/23 09:40:59;;;;;;;0.83;0.83;;;;;;;;;;5040788;28;20505;-90
2022/05/23 09:49:03;;;;;;;0.10;0.10;;;;;;;;;;5027006;28;20044;-88
2022/05/23 09:51:29;;;;;;;0.10;0.10;;;;;;;;;;5041468;28;20033;-87
2022/05/23 09:53:55;;;;;;;;;;;;;;;;;;5035337;28;20525;-88
2022/05/23 09:56:21;;;;;;;1.05;0.70;;;;;;;;;;5031702;28;20004;-89
2022/05/23 09:58:48;;;;;;;0.63;0.63;;;;;;;;;;5029628;28;20480;-87
2022/05/23 10:01:24;;;;;;;6.93;1.30;;;;;;;;;;5043702;28;20041;-87
2022/05/23 10:03:51;;;;;;;0.35;0.35;;;;;;;;;;5043075;28;20028;-87
2022/05/23 10:06:17;;;;;;;;;;;;;;;;;;5041011;28;20560;-88
2022/05/23 10:08:44;;;;;;;0.65;0.65;;;;;;;;;;5036340;28;20015;-88
2022/05/23 10:11:21;;;;;;;0.98;0.47;;;;;;;;;;5031225;28;20033;-87
2022/05/23 10:13:52;;;;;;;0.20;0.10;;;;;;;;;;5043295;28;20051;-88
2022/05/23 10:16:24;;;;;;;0.75;0.75;;;;;;;;;;5025959;28;20424;-89
2022/05/23 10:18:51;;;;;;;0.20;0.20;;;;;;;;;;5042446;28;20037;-88
2022/05/23 10:21:20;;;;;;;1.02;0.28;;;;;;;;;;5040155;28;20100;-78
2022/05/23 10:24:05;;;;;;;0.13;0.13;;;;;;;;;;5033811;28;20060;-78
2022/05/23 10:26:33;;;;;;;2.58;1.70;;;;;;;;;;5031492;28;20096;-78
2022/05/23 10:29:11;;;;;;;0.00;0.00;;;;;;;;;;5028788;28;20677;-78
2022/05/23 10:31:46;;;;;;;0.20;0.20;;;;;;;;;;5041980;28;20447;-78
2022/05/23 10:34:23;;;;;;;0.65;0.65;;;;;;;;;;5026031;28;20030;-77
2022/05/23 10:36:53;;;;;;;0.50;0.50;;;;;;;;;;5041893;28;20033;-77
2022/05/23 10:42:07;;;;;;;0.23;0.23;;;;;;;;;;5037982;28;20520;-78
2022/05/23 10:44:33;;;;;;;0.20;0.20;;;;;;;;;;5036863;28;20033;-78
2022/05/23 10:47:14;;;;;;;0.10;0.10;;;;;;;;;;5031177;28;20051;-78
2022/05/23 10:50:00;;;;;;;0.38;0.35;;;;;;;;;;5029245;28;20029;-78
2022/05/23 10:52:53;;;;;;;0.22;0.22;;;;;;;;;;5043211;28;20028;-78
2022/05/23 10:55:24;;;;;;;0.57;0.57;;;;;;;;;;5019471;28;20120;-77
2022/05/23 10:57:56;;;;;;;0.90;0.75;;;;;;;;;;5019163;28;20124;-78
2022/05/23 11:00:25;;;;;;;0.45;0.45;;;;;;;;;;5020629;28;20597;-78
2022/05/23 11:03:01;;;;;;;0.20;0.20;;;;;;;;;;5018300;28;20084;-78
2022/05/23 11:05:32;;;;;;;0.17;0.17;;;;;;;;;;5019115;28;20928;-78
2022/05/23 11:08:05;;;;;;;0.30;0.30;;;;;;;;;;5018944;28;20490;-78
2022/05/23 11:10:38;;;;;;;0.80;0.80;;;;;;;;;;5005627;28;20112;-77
2022/05/23 11:13:12;;;;;;;2.15;1.10;;;;;;;;;;5002938;28;20246;-78
2022/05/23 11:15:38;;;;;;;0.10;0.10;;;;;;;;;;5020668;28;20064;-77
2022/05/23 11:18:08;;;;;;;0.47;0.43;;;;;;;;;;5017996;28;20072;-77
2022/05/23 11:20:35;;;;;;;0.20;0.20;;;;;;;;;;5018806;28;20103;-77
2022/05/23 11:23:10;;;;;;;0.93;0.88;;;;;;;;;;5019308;28;20025;-89
2022/05/23 11:25:37;;;;;;;1.85;1.23;;;;;;;;;;5019543;28;20403;-88
2022/05/23 11:33:58;;;;;;;0.45;0.45;;;;;;;;;;5040729;28;20075;-88
2022/05/23 11:36:34;;;;;;;0.43;0.43;;;;;;;;;;5039339;28;20029;-87
2022/05/23 11:39:00;;;;;;;0.80;0.80;;;;;;;;;;5031774;28;20045;-88
2022/05/23 11:41:55;;;;;;;7.22;0.40;;;;;;;;;;5032264;28;20032;-89
2022/05/23 11:45:00;;;;;;;3.40;1.00;;;;;;;;;;5036241;28;20025;-89
2022/05/23 11:47:44;;;;;;;0.25;0.25;;;;;;;;;;5044558;28;20103;-90
2022/05/23 11:50:16;;;;;;;1.75;1.10;;;;;;;;;;5044639;28;20033;-90
2022/05/23 11:52:45;;;;;;;1.35;0.80;;;;;;;;;;5047446;28;20032;-89
2022/05/23 11:55:12;;;;;;;3.20;1.25;;;;;;;;;;5044229;28;20036;-88
2022/05/23 11:57:39;;;;;;;0.30;0.30;;;;;;;;;;5048019;28;20192;-88
2022/05/23 12:00:26;;;;;;;1.55;0.85;;;;;;;;;;5044591;28;20107;-90
2022/05/23 12:03:10;;;;;;;0.20;0.20;;;;;;;;;;5042599;28;20493;-90
2022/05/23 12:05:36;;;;;;;0.77;0.77;;;;;;;;;;5044487;28;20120;-89
2022/05/23 12:08:04;;;;;;;0.10;0.10;;;;;;;;;;5043065;28;20829;-89
2022/05/23 12:10:36;;;;;;;1.73;0.60;;;;;;;;;;5043603;28;20036;-87
2022/05/23 12:13:14;;;;;;;0.40;0.40;;;;;;;;;;5026054;28;20029;-90
2022/05/23 12:15:42;;;;;;;0.20;0.20;;;;;;;;;;5042223;28;20123;-90
2022/05/23 12:18:10;;;;;;;1.20;0.80;;;;;;;;;;5034926;28;20049;-90
2022/05/23 12:20:46;;;;;;;0.30;0.30;;;;;;;;;;5032631;28;20025;-89
2022/05/23 12:23:16;;;;;;;1.15;1.05;;;;;;;;;;5037114;28;20626;-78
2022/05/23 12:25:42;;;;;;;0.00;0.00;;;;;;;;;;5028043;28;20155;-78
2022/05/23 12:28:14;;;;;;;1.15;0.60;;;;;;;;;;5026477;28;20053;-78
2022/05/23 12:30:59;;;;;;;0.13;0.13;;;;;;;;;;5028671;28;20061;-78
2022/05/23 12:33:25;;;;;;;0.10;0.10;;;;;;;;;;5038782;28;20041;-78
2022/05/23 12:35:58;;;;;;;0.22;0.22;;;;;;;;;;5037737;28;20017;-78
2022/05/23 12:38:43;;;;;;;8.02;1.35;;;;;;;;;;5036432;28;20448;-78
2022/05/23 12:41:18;;;;;;;14.90;0.38;;;;;;;;;;5029366;28;20090;-78
2022/05/23 12:44:17;;;;;;;0.10;0.05;;;;;;;;;;5027686;28;20029;-78
2022/05/23 12:46:57;;;;;;;0.43;0.40;;;;;;;;;;5022295;28;20036;-79
2022/05/23 12:49:26;;;;;;;0.00;0.00;;;;;;;;;;5040702;28;20049;-78
2022/05/23 12:52:11;;;;;;;2.15;0.98;;;;;;;;;;5041346;28;20116;-78
2022/05/23 12:54:57;;;;;;;0.10;0.10;;;;;;;;;;5040062;28;20057;-78
2022/05/23 12:57:29;;;;;;;0.00;0.00;;;;;;;;;;5029123;28;20048;-78
2022/05/23 12:59:55;;;;;;;0.13;0.13;;;;;;;;;;5037523;28;20029;-78
2022/05/23 13:02:44;;;;;;;0.40;0.38;;;;;;;;;;5040697;28;20033;-78
2022/05/23 13:05:17;;;;;;;0.50;0.28;;;;;;;;;;5040953;28;20085;-78
2022/05/23 13:07:43;;;;;;;2.42;1.08;;;;;;;;;;5040807;28;20041;-78
2022/05/23 13:10:11;;;;;;;0.00;0.00;;;;;;;;;;5024765;28;20045;-78
2022/05/23 13:12:42;;;;;;;0.20;0.20;;;;;;;;;;5041241;28;20066;-78
2022/05/23 13:15:08;;;;;;;0.00;0.00;;;;;;;;;;5030197;28;20034;-79
2022/05/23 13:17:37;;;;;;;2.78;1.50;;;;;;;;;;5029402;28;20564;-78
2022/05/23 13:22:59;;;;;;;;;;;;;;;;;;5033583;28;20031;-90
2022/05/23 13:25:29;;;;;;;0.55;0.32;;;;;;;;;;5027122;28;19912;-88
2022/05/23 13:27:58;;;;;;;0.00;0.00;;;;;;;;;;5043646;28;20067;-89
2022/05/23 13:30:30;;;;;;;0.08;0.03;;;;;;;;;;5042924;28;20067;-91
2022/05/23 13:33:00;;;;;;;0.00;0.00;;;;;;;;;;5036726;28;20029;-90
2022/05/23 13:35:26;;;;;;;0.00;0.00;;;;;;;;;;5033032;28;20021;-91
2022/05/23 13:37:52;;;;;;;0.00;0.00;;;;;;;;;;5041749;28;20116;-90
2022/05/23 13:40:24;;;;;;;0.00;0.00;;;;;;;;;;5045977;28;20032;-91
2022/05/23 13:42:50;;;;;;;0.00;0.00;;;;;;;;;;5044024;28;20044;-88
2022/05/23 13:45:18;;;;;;;0.00;0.00;;;;;;;;;;5029380;28;20114;-88
2022/05/23 13:47:46;;;;;;;0.20;0.20;;;;;;;;;;5036169;28;20123;-87
2022/05/23 13:50:16;;;;;;;0.03;0.03;;;;;;;;;;5040809;28;20566;-91
2022/05/23 13:52:48;;;;;;;0.47;0.47;;;;;;;;;;5045712;28;20391;-89
2022/05/23 13:55:19;;;;;;;0.00;0.00;;;;;;;;;;5027611;28;20029;-90
2022/05/23 13:57:47;;;;;;;0.25;0.25;;;;;;;;;;5030149;28;20099;-88
2022/05/23 14:00:18;;;;;;;0.90;0.75;;;;;;;;;;5033546;28;20033;-89
2022/05/23 14:02:49;;;;;;;2.40;1.30;;;;;;;;;;5032232;28;20025;-89
2022/05/23 14:05:16;;;;;;;8.40;0.75;;;;;;;;;;5032087;28;20860;-87
2022/05/23 14:07:43;;;;;;;0.10;0.10;;;;;;;;;;5043525;28;20059;-89
2022/05/23 14:10:10;;;;;;;0.95;0.68;;;;;;;;;;5029508;28;20034;-90
2022/05/23 14:12:39;;;;;;;0.20;0.20;;;;;;;;;;5031319;28;20034;-89
2022/05/23 14:15:08;;;;;;;0.00;0.00;;;;;;;;;;5031555;28;20045;-89
2022/05/23 14:17:43;;;;;;;0.22;0.22;;;;;;;;;;5034719;28;20472;-90
2022/05/23 14:20:27;;;;;;;1.65;0.32;;;;;;;;;;5040019;28;20065;-88
2022/05/23 14:23:12;;;;;;;0.10;0.10;;;;;;;;;;5042712;28;20041;-89
2022/05/23 14:25:39;;;;;;;0.13;0.13;;;;;;;;;;5028791;28;20024;-90
2022/05/23 14:28:13;;;;;;;0.00;0.00;;;;;;;;;;5042052;28;20044;-90
2022/05/23 14:30:42;;;;;;;0.10;0.10;;;;;;;;;;5040990;28;20036;-90
2022/05/23 14:33:19;;;;;;;0.10;0.10;;;;;;;;;;5043116;28;20107;-90
2022/05/23 14:35:51;;;;;;;0.10;0.10;;;;;;;;;;5039754;28;20117;-88
2022/05/23 14:38:25;;;;;;;0.00;0.00;;;;;;;;;;5039883;28;20033;-89
2022/05/23 14:40:52;;;;;;;0.00;0.00;;;;;;;;;;5038875;28;20029;-90
2022/05/23 14:43:33;;;;;;;0.65;0.47;;;;;;;;;;5043605;28;20055;-90
2022/05/23 14:46:01;;;;;;;4.30;2.47;;;;;;;;;;5042354;28;20083;-89
2022/05/23 14:48:31;;;;;;;0.10;0.10;;;;;;;;;;5031484;28;20068;-89
2022/05/23 14:51:14;;;;;;;0.40;0.30;;;;;;;;;;5036836;28;20095;-90
2022/05/23 14:56:34;;;;;;;0.00;0.00;;;;;;;;;;5030767;28;20144;-89
2022/05/23 15:01:46;;;;;;;0.10;0.10;;;;;;;;;;5031967;28;20048;-90
2022/05/23 15:04:21;;;;;;;0.15;0.15;;;;;;;;;;5027727;28;20123;-90
2022/05/23 15:06:47;;;;;;;0.43;0.43;;;;;;;;;;5041643;28;20497;-90
2022/05/23 15:09:13;;;;;;;0.28;0.28;;;;;;;;;;5031670;28;20021;-90
2022/05/23 15:11:39;;;;;;;0.00;0.00;;;;;;;;;;5031634;28;20033;-90
2022/05/23 15:14:05;;;;;;;;;;;;;;;;;;5028571;28;20064;-88
2022/05/23 15:16:34;;;;;;;0.00;0.00;;;;;;;;;;5043286;28;19948;-87
2022/05/23 15:19:00;;;;;;;0.15;0.15;;;;;;;;;;5041600;28;20079;-87
2022/05/23 15:21:26;;;;;;;0.00;0.00;;;;;;;;;;5032366;28;20099;-88
2022/05/23 15:23:52;;;;;;;0.05;0.05;;;;;;;;;;5032233;28;20033;-86
2022/05/23 15:26:20;;;;;;;0.10;0.10;;;;;;;;;;5032685;28;20026;-87
2022/05/23 15:28:48;;;;;;;0.10;0.10;;;;;;;;;;5045854;28;20057;-90
2022/05/23 15:31:16;;;;;;;0.00;0.00;;;;;;;;;;5043352;28;20417;-86
2022/05/23 15:33:42;;;;;;;0.00;0.00;;;;;;;;;;5040189;28;20500;-88
2022/05/23 15:36:08;;;;;;;0.00;0.00;;;;;;;;;;5032101;28;20025;-88
2022/05/23 15:38:35;;;;;;;0.20;0.20;;;;;;;;;;5045460;28;20044;-87
2022/05/23 15:41:02;;;;;;;0.00;0.00;;;;;;;;;;5036467;28;20051;-87
2022/05/23 15:43:29;;;;;;;0.10;0.10;;;;;;;;;;5031778;28;20036;-88
2022/05/23 15:45:55;;;;;;;0.73;0.43;;;;;;;;;;5042717;28;20017;-91
2022/05/23 15:48:22;;;;;;;0.00;0.00;;;;;;;;;;5038584;28;20075;-92
2022/05/23 15:50:49;;;;;;;0.30;0.30;;;;;;;;;;5041939;28;20117;-89
2022/05/23 15:53:15;;;;;;;0.17;0.17;;;;;;;;;;5030956;28;20041;-91
2022/05/23 15:55:44;;;;;;;0.17;0.17;;;;;;;;;;5042674;28;20025;-89
2022/05/23 15:58:14;;;;;;;0.00;0.00;;;;;;;;;;5033584;28;20129;-88
2022/05/23 16:00:40;;;;;;;0.10;0.10;;;;;;;;;;5033107;28;20032;-88
2022/05/23 16:03:08;;;;;;;2.50;0.77;;;;;;;;;;5029824;28;20082;-90
2022/05/23 16:05:34;;;;;;;0.35;0.35;;;;;;;;;;5031321;28;20021;-92
2022/05/23 16:08:00;;;;;;;;;;;;;;;;;;5040317;28;20064;-87
2022/05/23 16:10:27;;;;;;;0.45;0.45;;;;;;;;;;5035491;28;19940;-86
2022/05/23 16:12:59;;;;;;;0.00;0.00;;;;;;;;;;5039328;28;20116;-86
2022/05/23 16:15:26;;;;;;;0.10;0.10;;;;;;;;;;5038797;28;20037;-86
2022/05/23 16:17:54;;;;;;;0.30;0.30;;;;;;;;;;5032681;28;20571;-86